Time;durP1;ratioP1;P1;durP2;ratioP2;P2;SDS_P1;SDS_P2;PMS_P1;PMS_P2;Temp;Humidity;BMP_temperature;BMP_pressure;BME280_temperature;BME280_humidity;BME280_pressure;Samples;Min_cycle;Max_cycle;Signal;HPM_P1;HPM_P2
2022/01/21 00:00:55;;;;;;;6.00;1.63;;;20.50;48.10;;;;;;5032393;28;20060;-60
2022/01/21 00:03:21;;;;;;;6.50;1.90;;;20.50;48.10;;;;;;5032778;28;20045;-60
2022/01/21 00:05:46;;;;;;;5.07;1.50;;;20.50;48.10;;;;;;5015303;28;20053;-60
2022/01/21 00:08:12;;;;;;;5.15;1.95;;;20.50;48.10;;;;;;5031945;28;20128;-61
2022/01/21 00:10:37;;;;;;;6.18;2.15;;;20.50;48.10;;;;;;5032854;28;20049;-60
2022/01/21 00:13:13;;;;;;;5.72;1.85;;;20.40;48.00;;;;;;5033223;28;20044;-60
2022/01/21 00:15:38;;;;;;;4.25;1.85;;;20.40;48.00;;;;;;5032041;28;20138;-61
2022/01/21 00:18:04;;;;;;;5.85;2.08;;;20.40;48.10;;;;;;5032825;28;20073;-61
2022/01/21 00:31:27;;;;;;;5.78;2.15;;;20.30;47.90;;;;;;5032614;28;20124;-61
2022/01/21 00:33:53;;;;;;;5.75;2.10;;;20.30;47.90;;;;;;5032742;28;20556;-61
2022/01/21 00:36:18;;;;;;;4.75;1.85;;;20.30;47.90;;;;;;5031714;28;20099;-61
2022/01/21 00:38:44;;;;;;;6.30;2.38;;;20.30;47.80;;;;;;5032747;28;20045;-61
2022/01/21 00:41:11;;;;;;;5.88;1.98;;;20.20;47.70;;;;;;5032774;28;20029;-61
2022/01/21 00:43:44;;;;;;;5.05;1.80;;;20.20;47.70;;;;;;5031930;28;20053;-61
2022/01/21 00:46:13;;;;;;;6.55;2.03;;;20.30;47.80;;;;;;5031626;28;20049;-61
2022/01/21 00:48:38;;;;;;;4.45;1.75;;;20.20;47.70;;;;;;5032720;28;20798;-60
2022/01/21 00:51:04;;;;;;;4.68;2.13;;;20.20;47.70;;;;;;5031711;28;20045;-61
2022/01/21 00:53:29;;;;;;;5.95;2.10;;;20.20;47.70;;;;;;5032146;28;20052;-61
2022/01/21 00:55:55;;;;;;;6.10;2.00;;;20.20;47.60;;;;;;5032490;28;20131;-61
2022/01/21 00:58:20;;;;;;;4.72;1.88;;;20.20;47.60;;;;;;5031392;28;20041;-61
2022/01/21 01:00:46;;;;;;;3.85;1.70;;;20.20;47.60;;;;;;5032111;28;20060;-60
2022/01/21 01:03:14;;;;;;;7.68;2.20;;;20.10;47.60;;;;;;5033003;28;20108;-61
2022/01/21 01:05:39;;;;;;;6.15;2.03;;;20.10;47.50;;;;;;5032102;28;20050;-60
2022/01/21 01:08:05;;;;;;;6.78;1.95;;;20.10;47.50;;;;;;5031729;28;20390;-60
2022/01/21 01:10:48;;;;;;;4.40;1.95;;;20.10;47.50;;;;;;5032036;28;20128;-61
2022/01/21 01:21:17;;;;;;;4.57;1.80;;;20.00;47.50;;;;;;5031786;28;20496;-61
2022/01/21 01:29:10;;;;;;;3.88;1.40;;;20.00;47.50;;;;;;5036308;28;20053;-61
2022/01/21 01:31:36;;;;;;;4.80;1.48;;;20.00;47.40;;;;;;5035585;28;20045;-61
2022/01/21 01:34:02;;;;;;;4.35;1.48;;;19.90;47.40;;;;;;5035454;28;20481;-61
2022/01/21 01:36:28;;;;;;;3.75;1.52;;;20.00;47.40;;;;;;5035419;28;20045;-61
2022/01/21 01:39:11;;;;;;;4.80;1.63;;;20.00;47.40;;;;;;5036001;28;20041;-61
2022/01/21 01:41:42;;;;;;;4.30;1.50;;;20.00;47.40;;;;;;5035605;28;20045;-60
2022/01/21 01:49:37;;;;;;;5.45;1.67;;;19.90;47.30;;;;;;5035363;28;20408;-61
2022/01/21 01:52:08;;;;;;;3.80;1.42;;;19.90;47.40;;;;;;5035677;28;20461;-61
2022/01/21 01:54:35;;;;;;;2.83;1.10;;;19.90;47.20;;;;;;5034687;28;20085;-61
2022/01/21 01:57:00;;;;;;;4.63;1.55;;;19.90;47.20;;;;;;5035718;28;20049;-61
2022/01/21 01:59:26;;;;;;;3.50;1.25;;;19.90;47.20;;;;;;5034229;28;20072;-60
2022/01/21 02:02:00;;;;;;;5.78;1.30;;;19.80;47.20;;;;;;5034992;28;20095;-61
2022/01/21 02:04:25;;;;;;;3.97;1.23;;;19.90;47.30;;;;;;5035188;28;20049;-61
2022/01/21 02:06:51;;;;;;;3.92;1.20;;;19.80;47.30;;;;;;5035578;28;20400;-61
2022/01/21 02:09:17;;;;;;;3.75;1.30;;;19.80;47.30;;;;;;5034502;28;20049;-61
2022/01/21 02:11:42;;;;;;;4.35;1.30;;;19.80;47.30;;;;;;5017749;28;20205;-61
2022/01/21 02:14:12;;;;;;;4.70;1.27;;;19.80;47.30;;;;;;5035527;28;20099;-61
2022/01/21 02:17:07;;;;;;;4.07;1.25;;;19.80;47.30;;;;;;5034609;28;20041;-61
2022/01/21 02:22:16;;;;;;;3.47;1.27;;;19.80;47.40;;;;;;5034056;28;20057;-61
2022/01/21 02:24:51;;;;;;;3.13;1.10;;;19.80;47.40;;;;;;5035106;28;20493;-61
2022/01/21 02:27:17;;;;;;;3.90;1.17;;;19.80;47.40;;;;;;5017275;28;20107;-61
2022/01/21 02:29:48;;;;;;;2.75;0.98;;;19.70;47.30;;;;;;5034508;28;20041;-61
2022/01/21 02:32:14;;;;;;;4.28;1.30;;;19.70;47.30;;;;;;5034748;28;20125;-61
2022/01/21 02:34:40;;;;;;;4.07;1.10;;;19.80;47.30;;;;;;5034221;28;20191;-61
2022/01/21 02:37:06;;;;;;;3.42;1.05;;;19.70;47.30;;;;;;5034007;28;20481;-61
2022/01/21 02:39:32;;;;;;;4.55;1.33;;;19.70;47.20;;;;;;5034377;28;20160;-61
2022/01/21 02:41:57;;;;;;;5.28;1.20;;;19.70;47.20;;;;;;5034647;28;20440;-61
2022/01/21 02:44:24;;;;;;;5.78;1.00;;;19.70;47.30;;;;;;5033664;28;20064;-61
2022/01/21 02:46:55;;;;;;;4.97;1.40;;;19.70;47.30;;;;;;5016961;28;20050;-61
2022/01/21 02:49:21;;;;;;;3.50;1.20;;;19.70;47.30;;;;;;5034332;28;20056;-62
2022/01/21 02:51:46;;;;;;;3.05;1.02;;;19.70;47.40;;;;;;5034023;28;20033;-61
2022/01/21 02:54:12;;;;;;;4.40;1.20;;;19.70;47.40;;;;;;5034305;28;20366;-61
2022/01/21 02:56:38;;;;;;;4.63;1.17;;;19.70;48.10;;;;;;5034011;28;20069;-61
2022/01/21 02:59:05;;;;;;;4.03;1.20;;;19.70;47.40;;;;;;5034396;28;20065;-62
2022/01/21 03:01:35;;;;;;;3.08;1.10;;;19.70;47.40;;;;;;5034130;28;20049;-61
2022/01/21 03:04:01;;;;;;;4.25;1.00;;;19.70;47.40;;;;;;5033249;28;20497;-61
2022/01/21 03:06:27;;;;;;;2.97;0.80;;;19.70;47.30;;;;;;5033557;28;20068;-61
2022/01/21 03:08:53;;;;;;;3.40;1.10;;;19.70;47.40;;;;;;5034116;28;20049;-61
2022/01/21 03:11:21;;;;;;;4.32;1.15;;;19.70;47.40;;;;;;5032605;28;20049;-61
2022/01/21 03:13:46;;;;;;;4.07;1.23;;;19.70;47.30;;;;;;5034050;28;20133;-61
2022/01/21 03:16:12;;;;;;;2.50;0.73;;;19.70;47.30;;;;;;5034163;28;20128;-61
2022/01/21 03:18:38;;;;;;;3.63;1.20;;;19.70;47.30;;;;;;5033007;28;20049;-61
2022/01/21 03:21:03;;;;;;;4.72;1.08;;;19.80;47.30;;;;;;5034170;28;20076;-61
2022/01/21 03:23:29;;;;;;;4.53;0.90;;;19.80;47.30;;;;;;5034061;28;20037;-61
2022/01/21 03:25:55;;;;;;;4.05;0.90;;;19.80;47.20;;;;;;5033277;28;20050;-61
2022/01/21 03:28:21;;;;;;;4.85;1.10;;;19.80;47.20;;;;;;5033195;28;20048;-61
2022/01/21 03:30:46;;;;;;;2.22;0.70;;;19.80;47.20;;;;;;5033725;28;20052;-61
2022/01/21 03:33:13;;;;;;;2.80;0.82;;;19.80;47.10;;;;;;5032827;28;20477;-61
2022/01/21 03:35:39;;;;;;;3.00;1.00;;;19.80;47.10;;;;;;5033924;28;20133;-61
2022/01/21 03:38:04;;;;;;;3.83;0.70;;;19.80;47.10;;;;;;5015882;28;20128;-62
2022/01/21 03:40:30;;;;;;;3.33;0.80;;;19.80;47.10;;;;;;5032740;28;20049;-61
2022/01/21 03:42:56;;;;;;;2.65;0.80;;;19.80;47.10;;;;;;5033900;28;20048;-61
2022/01/21 03:45:21;;;;;;;3.72;0.90;;;19.80;47.20;;;;;;5033704;28;20038;-61
2022/01/21 03:47:47;;;;;;;2.80;0.80;;;19.80;47.10;;;;;;5032722;28;20049;-61
2022/01/21 03:50:22;;;;;;;2.38;0.70;;;19.90;47.20;;;;;;5032334;28;20049;-61
2022/01/21 03:52:48;;;;;;;3.10;0.90;;;19.80;47.10;;;;;;5032858;28;20045;-61
2022/01/21 03:55:14;;;;;;;4.03;1.10;;;19.90;47.20;;;;;;5032436;28;20045;-61
2022/01/21 03:57:39;;;;;;;2.85;0.80;;;19.90;47.10;;;;;;5033712;28;20037;-61
2022/01/21 04:00:08;;;;;;;3.40;0.88;;;19.90;47.10;;;;;;5014291;28;20551;-61
2022/01/21 04:02:34;;;;;;;1.67;0.70;;;19.90;47.10;;;;;;5015676;28;20041;-61
2022/01/21 04:04:59;;;;;;;2.90;0.70;;;19.90;47.10;;;;;;5033450;28;20052;-61
2022/01/21 04:07:25;;;;;;;3.30;0.63;;;19.90;47.10;;;;;;5032264;28;20041;-61
2022/01/21 04:09:50;;;;;;;2.95;0.98;;;19.90;47.10;;;;;;5033383;28;20393;-61
2022/01/21 04:12:16;;;;;;;3.28;0.80;;;19.90;47.00;;;;;;5033019;28;20081;-61
2022/01/21 04:14:42;;;;;;;2.40;0.52;;;19.90;47.00;;;;;;5032406;28;20050;-61
2022/01/21 04:17:07;;;;;;;2.22;0.70;;;19.90;47.00;;;;;;5032815;28;20452;-61
2022/01/21 04:19:33;;;;;;;3.55;0.85;;;19.90;47.10;;;;;;5032962;28;20040;-61
2022/01/21 04:21:59;;;;;;;2.80;0.60;;;19.90;47.10;;;;;;5032053;28;20045;-61
2022/01/21 04:24:24;;;;;;;4.80;0.95;;;19.90;47.10;;;;;;5032529;28;20473;-61
2022/01/21 04:26:50;;;;;;;3.17;0.80;;;19.90;47.00;;;;;;5033150;28;20042;-61
2022/01/21 04:29:16;;;;;;;2.22;0.63;;;19.90;47.10;;;;;;5031545;28;20140;-61
2022/01/21 04:31:41;;;;;;;2.60;0.60;;;20.00;47.10;;;;;;5032702;28;20046;-61
2022/01/21 04:34:07;;;;;;;3.08;0.70;;;19.90;47.00;;;;;;5033034;28;20056;-61
2022/01/21 04:36:34;;;;;;;3.50;0.70;;;19.90;47.10;;;;;;5031632;28;20049;-61
2022/01/21 04:39:01;;;;;;;2.92;0.80;;;20.00;47.10;;;;;;5015031;28;20088;-61
2022/01/21 04:47:11;;;;;;;1.75;0.55;;;20.00;47.10;;;;;;5032533;28;20037;-61
2022/01/21 04:49:42;;;;;;;3.30;0.50;;;20.00;47.20;;;;;;5031994;28;20054;-61
2022/01/21 04:52:08;;;;;;;2.88;0.60;;;20.00;47.20;;;;;;5032134;28;20128;-61
2022/01/21 04:54:34;;;;;;;3.50;0.68;;;20.10;47.20;;;;;;5032477;28;20132;-61
2022/01/21 04:57:00;;;;;;;3.60;0.80;;;20.00;47.10;;;;;;5031762;28;20045;-61
2022/01/21 04:59:26;;;;;;;2.85;0.65;;;20.00;47.10;;;;;;5031707;28;20103;-61
2022/01/21 05:01:52;;;;;;;2.55;0.45;;;20.00;47.20;;;;;;5034753;28;20053;-60
2022/01/21 05:04:21;;;;;;;1.63;0.52;;;20.00;47.20;;;;;;5035604;28;20072;-61
2022/01/21 05:06:48;;;;;;;2.50;0.60;;;20.10;47.20;;;;;;5035351;28;20049;-61
2022/01/21 05:09:16;;;;;;;2.13;0.50;;;20.10;47.20;;;;;;5036034;28;20042;-61
2022/01/21 05:11:42;;;;;;;1.80;0.50;;;20.00;47.10;;;;;;5036042;28;20046;-62
2022/01/21 05:14:19;;;;;;;2.97;0.60;;;20.10;47.20;;;;;;5036416;28;20068;-61
2022/01/21 05:16:50;;;;;;;1.65;0.45;;;20.00;47.10;;;;;;5036719;28;20060;-61
2022/01/21 05:19:17;;;;;;;3.42;0.63;;;20.10;47.20;;;;;;5035489;28;20092;-61
2022/01/21 05:21:43;;;;;;;2.25;0.55;;;20.10;47.20;;;;;;5036482;28;20049;-61
2022/01/21 05:24:09;;;;;;;1.55;0.50;;;20.10;47.20;;;;;;5036397;28;20045;-61
2022/01/21 05:26:39;;;;;;;3.20;0.50;;;20.10;47.20;;;;;;5035582;28;20072;-61
2022/01/21 05:29:09;;;;;;;1.30;0.60;;;20.10;47.20;;;;;;5036426;28;20049;-61
2022/01/21 05:31:35;;;;;;;3.03;0.70;;;20.10;47.10;;;;;;5035251;28;20037;-62
2022/01/21 05:34:01;;;;;;;2.50;0.60;;;20.10;47.10;;;;;;5036002;28;20111;-61
2022/01/21 05:36:26;;;;;;;1.95;0.40;;;20.10;47.10;;;;;;5035183;28;20132;-61
2022/01/21 05:38:53;;;;;;;2.42;0.40;;;20.10;47.10;;;;;;5035143;28;20053;-61
2022/01/21 05:41:22;;;;;;;2.85;0.55;;;20.20;47.20;;;;;;5035592;28;20053;-61
2022/01/21 05:43:47;;;;;;;;;;;20.10;47.10;;;;;;5036581;28;20046;-61
2022/01/21 05:46:24;;;;;;;2.25;0.50;;;20.10;47.20;;;;;;5034733;28;19928;-61
2022/01/21 05:48:50;;;;;;;1.80;0.50;;;20.10;47.10;;;;;;5036092;28;20081;-61
2022/01/21 05:51:16;;;;;;;2.25;0.50;;;20.10;47.10;;;;;;5034992;28;20131;-61
2022/01/21 05:53:42;;;;;;;2.83;0.60;;;20.20;47.20;;;;;;5035577;28;20050;-61
2022/01/21 05:56:08;;;;;;;1.70;0.40;;;20.10;47.10;;;;;;5035984;28;20061;-61
2022/01/21 05:58:33;;;;;;;3.22;0.57;;;20.10;47.10;;;;;;5035520;28;20040;-61
2022/01/21 06:00:59;;;;;;;2.63;0.60;;;20.10;47.10;;;;;;5034734;28;20489;-61
2022/01/21 06:03:24;;;;;;;1.60;0.47;;;20.10;47.10;;;;;;5001332;28;20404;-61
2022/01/21 06:05:50;;;;;;;3.42;0.45;;;20.10;47.10;;;;;;5017999;28;20037;-61
2022/01/21 06:08:16;;;;;;;2.38;0.52;;;20.10;47.10;;;;;;5034080;28;20087;-61
2022/01/21 06:10:41;;;;;;;1.92;0.40;;;20.10;47.10;;;;;;5017592;28;20045;-61
2022/01/21 06:13:07;;;;;;;2.90;0.55;;;20.10;47.10;;;;;;5034268;28;20417;-61
2022/01/21 06:15:33;;;;;;;2.22;0.40;;;20.10;47.10;;;;;;5034292;28;20049;-61
2022/01/21 06:17:58;;;;;;;1.95;0.40;;;20.20;47.20;;;;;;5035440;28;20099;-61
2022/01/21 06:20:24;;;;;;;2.00;0.43;;;20.10;47.10;;;;;;5035031;28;20051;-61
2022/01/21 06:22:50;;;;;;;1.73;0.40;;;20.10;47.10;;;;;;5034486;28;20095;-61
2022/01/21 06:25:15;;;;;;;2.63;0.50;;;20.20;47.20;;;;;;5034687;28;20048;-61
2022/01/21 06:27:41;;;;;;;2.97;0.68;;;20.20;47.20;;;;;;5034455;28;20041;-61
2022/01/21 06:30:08;;;;;;;1.55;0.47;;;20.20;47.10;;;;;;5034775;28;20049;-60
2022/01/21 06:32:33;;;;;;;2.15;0.40;;;20.20;47.10;;;;;;5034612;28;20500;-61
2022/01/21 06:34:59;;;;;;;2.50;0.55;;;20.20;47.10;;;;;;5034309;28;20045;-61
2022/01/21 06:37:24;;;;;;;1.75;0.50;;;20.20;47.10;;;;;;5034630;28;20065;-61
2022/01/21 06:39:50;;;;;;;2.70;0.60;;;20.20;47.00;;;;;;5034960;28;20120;-61
2022/01/21 06:42:21;;;;;;;2.17;0.40;;;20.20;47.00;;;;;;5033652;28;20080;-60
2022/01/21 06:44:47;;;;;;;1.52;0.40;;;20.20;47.00;;;;;;5035075;28;20076;-60
2022/01/21 06:47:12;;;;;;;2.45;0.68;;;20.20;47.00;;;;;;5034264;28;20122;-61
2022/01/21 06:49:38;;;;;;;2.47;0.47;;;20.20;47.00;;;;;;5033924;28;20149;-61
2022/01/21 06:52:04;;;;;;;2.28;0.40;;;20.20;47.00;;;;;;5034314;28;20128;-60
2022/01/21 06:54:29;;;;;;;2.25;0.50;;;20.20;47.00;;;;;;5033270;28;20428;-61
2022/01/21 06:56:55;;;;;;;2.15;0.80;;;20.20;47.00;;;;;;5033896;28;20053;-61
2022/01/21 06:59:20;;;;;;;2.38;0.40;;;20.20;47.00;;;;;;5034298;28;20062;-61
2022/01/21 07:01:46;;;;;;;2.63;0.40;;;20.20;46.90;;;;;;5034810;28;20401;-60
2022/01/21 07:04:12;;;;;;;3.08;0.60;;;20.30;47.00;;;;;;5033598;28;20045;-61
2022/01/21 07:06:37;;;;;;;1.90;0.40;;;20.20;46.90;;;;;;5034237;28;20489;-61
2022/01/21 07:09:03;;;;;;;2.45;0.40;;;20.20;46.90;;;;;;5034359;28;20046;-61
2022/01/21 07:11:29;;;;;;;1.23;0.40;;;20.20;46.90;;;;;;5033268;28;20049;-61
2022/01/21 07:13:54;;;;;;;2.28;0.40;;;20.20;46.90;;;;;;5034145;28;20045;-61
2022/01/21 07:16:20;;;;;;;1.55;0.50;;;20.20;46.90;;;;;;5034024;28;20065;-61
2022/01/21 07:18:45;;;;;;;2.78;0.45;;;20.30;46.90;;;;;;5033483;28;20497;-61
2022/01/21 07:21:11;;;;;;;2.75;0.63;;;20.20;46.90;;;;;;5034116;28;20048;-61
2022/01/21 07:23:36;;;;;;;4.88;0.50;;;20.30;46.90;;;;;;5032112;28;20493;-61
2022/01/21 07:26:02;;;;;;;3.78;0.60;;;20.30;46.90;;;;;;5032319;28;20128;-62
2022/01/21 07:28:27;;;;;;;7.30;0.60;;;20.30;46.90;;;;;;5033395;28;20038;-61
2022/01/21 07:30:53;;;;;;;4.78;0.55;;;20.30;46.90;;;;;;5015893;28;20494;-62
2022/01/21 07:33:18;;;;;;;3.95;0.60;;;20.30;46.80;;;;;;5032644;28;20069;-61
2022/01/21 07:35:44;;;;;;;3.45;0.40;;;20.30;46.90;;;;;;5033848;28;20053;-64
2022/01/21 07:38:10;;;;;;;6.57;0.50;;;20.30;46.90;;;;;;5032719;28;20038;-62
2022/01/21 07:40:36;;;;;;;3.38;0.60;;;20.30;46.90;;;;;;5033311;28;20042;-61
2022/01/21 07:43:01;;;;;;;2.97;0.40;;;20.30;47.00;;;;;;5033769;28;20488;-61
2022/01/21 07:45:27;;;;;;;3.88;0.60;;;20.30;47.10;;;;;;5031808;28;20045;-62
2022/01/21 07:47:52;;;;;;;3.67;0.50;;;20.30;47.00;;;;;;5033902;28;20045;-61
2022/01/21 07:50:18;;;;;;;3.70;0.80;;;20.30;47.10;;;;;;5033396;28;20049;-61
2022/01/21 07:52:43;;;;;;;2.50;0.50;;;20.30;47.10;;;;;;5031467;28;20049;-62
2022/01/21 07:55:10;;;;;;;2.28;0.65;;;20.30;47.20;;;;;;5033667;28;20047;-60
2022/01/21 07:57:35;;;;;;;4.30;0.70;;;20.30;47.20;;;;;;5032220;28;20053;-59
2022/01/21 08:00:01;;;;;;;5.13;1.10;;;20.30;47.30;;;;;;5025324;28;20052;-60
2022/01/21 08:02:28;;;;;;;4.90;1.48;;;20.30;47.20;;;;;;5022035;28;20092;-60
2022/01/21 08:04:55;;;;;;;6.93;1.00;;;20.30;47.30;;;;;;5022767;28;20087;-61
2022/01/21 08:07:21;;;;;;;5.18;1.70;;;20.30;47.50;;;;;;5022604;28;20455;-62
2022/01/21 08:09:49;;;;;;;5.60;1.40;;;20.30;48.40;;;;;;5013784;28;20049;-60
2022/01/21 08:12:16;;;;;;;6.00;1.33;;;20.30;47.80;;;;;;5013329;28;20049;-61
2022/01/21 08:14:42;;;;;;;7.03;1.35;;;20.30;47.80;;;;;;5012732;28;20084;-61
2022/01/21 08:17:08;;;;;;;3.83;1.17;;;20.30;47.70;;;;;;5013317;28;20413;-61
2022/01/21 08:19:33;;;;;;;7.07;1.33;;;20.30;47.80;;;;;;5012928;28;20048;-61
2022/01/21 08:21:59;;;;;;;3.92;1.40;;;20.30;47.90;;;;;;5012434;28;20042;-61
2022/01/21 08:24:24;;;;;;;4.55;1.23;;;20.30;48.10;;;;;;5012426;28;20085;-61
2022/01/21 08:26:50;;;;;;;4.07;1.10;;;20.40;48.20;;;;;;5010873;28;20049;-61
2022/01/21 08:29:16;;;;;;;3.70;1.08;;;20.40;48.20;;;;;;5011120;28;20101;-63
2022/01/21 08:31:42;;;;;;;4.68;1.20;;;20.40;48.30;;;;;;5012906;28;20042;-63
2022/01/21 08:34:07;;;;;;;4.13;1.10;;;20.40;48.40;;;;;;5013049;28;20052;-62
2022/01/21 08:36:33;;;;;;;3.72;1.17;;;20.40;48.50;;;;;;5011516;28;20046;-62
2022/01/21 08:38:58;;;;;;;3.15;1.02;;;20.40;48.50;;;;;;5013252;28;20133;-61
2022/01/21 08:41:24;;;;;;;4.28;1.05;;;20.40;48.50;;;;;;5012128;28;20068;-63
2022/01/21 08:43:49;;;;;;;3.60;1.20;;;20.40;48.60;;;;;;5013060;28;20513;-63
2022/01/21 08:46:15;;;;;;;4.55;1.10;;;20.40;48.60;;;;;;5012581;28;20046;-63
2022/01/21 08:48:41;;;;;;;4.25;1.10;;;20.50;48.50;;;;;;5024274;28;20033;-62
2022/01/21 08:51:11;;;;;;;3.53;1.20;;;20.50;48.60;;;;;;5032625;28;20045;-61
2022/01/21 08:53:38;;;;;;;3.75;1.10;;;20.50;48.60;;;;;;5031837;28;20037;-61
2022/01/21 08:56:05;;;;;;;3.47;1.15;;;20.50;48.50;;;;;;5031683;28;20124;-61
2022/01/21 08:58:31;;;;;;;3.10;1.10;;;20.50;48.50;;;;;;5014775;28;20051;-61
2022/01/21 09:00:56;;;;;;;5.07;1.30;;;20.50;48.50;;;;;;5031069;28;20061;-61
2022/01/21 09:03:22;;;;;;;4.15;1.00;;;20.50;48.60;;;;;;5031680;28;20049;-61
2022/01/21 09:05:51;;;;;;;4.07;0.90;;;20.50;48.70;;;;;;5032666;28;20115;-61
2022/01/21 09:08:22;;;;;;;4.90;1.17;;;20.50;48.60;;;;;;5032022;28;20045;-62
2022/01/21 09:10:48;;;;;;;4.50;1.30;;;20.50;49.40;;;;;;5031815;28;20072;-62
2022/01/21 09:13:14;;;;;;;3.30;1.00;;;20.60;48.70;;;;;;5031835;28;20069;-61
2022/01/21 09:15:39;;;;;;;4.57;1.20;;;20.60;48.70;;;;;;5032481;28;20077;-61
2022/01/21 09:18:05;;;;;;;2.72;1.08;;;20.60;48.80;;;;;;5031427;28;20053;-62
2022/01/21 09:20:35;;;;;;;3.22;1.02;;;20.60;48.90;;;;;;5032272;28;20593;-62
2022/01/21 09:23:00;;;;;;;3.60;1.10;;;20.60;48.90;;;;;;5032280;28;20073;-62
2022/01/21 09:25:26;;;;;;;2.15;0.80;;;20.60;48.90;;;;;;5031449;28;20461;-62
2022/01/21 09:27:51;;;;;;;2.95;1.00;;;20.60;48.90;;;;;;5032423;28;20049;-62
2022/01/21 09:30:17;;;;;;;1.85;0.75;;;20.60;48.90;;;;;;5031643;28;20052;-62
2022/01/21 09:32:43;;;;;;;3.08;1.08;;;20.60;49.00;;;;;;5029671;28;20099;-61
2022/01/21 09:35:10;;;;;;;1.63;0.77;;;20.60;48.80;;;;;;5032425;28;20124;-63
2022/01/21 09:37:35;;;;;;;4.18;1.02;;;20.60;48.90;;;;;;5031064;28;20072;-60
2022/01/21 09:40:01;;;;;;;4.53;1.02;;;20.70;49.10;;;;;;5032331;28;20081;-62
2022/01/21 09:42:26;;;;;;;4.13;0.90;;;20.60;48.90;;;;;;5031894;28;20085;-63
2022/01/21 09:44:52;;;;;;;4.03;0.85;;;20.70;49.00;;;;;;5013735;28;20559;-63
2022/01/21 09:47:19;;;;;;;2.72;0.90;;;20.70;48.90;;;;;;5031960;28;20099;-62
2022/01/21 09:49:45;;;;;;;2.92;0.93;;;20.70;48.80;;;;;;5017912;28;20053;-63
2022/01/21 09:52:12;;;;;;;4.10;1.00;;;20.60;48.70;;;;;;5034915;28;20037;-62
2022/01/21 09:54:39;;;;;;;5.28;0.98;;;20.60;48.70;;;;;;5036016;28;20037;-63
2022/01/21 09:57:06;;;;;;;5.05;1.00;;;20.60;48.60;;;;;;5017949;28;20047;-61
2022/01/21 09:59:33;;;;;;;4.13;1.00;;;20.60;48.60;;;;;;5033513;28;20077;-61
2022/01/21 10:02:01;;;;;;;5.67;1.10;;;20.60;48.70;;;;;;5035699;28;20054;-61
2022/01/21 10:04:31;;;;;;;3.17;0.90;;;20.70;48.90;;;;;;5035377;28;20041;-60
2022/01/21 10:06:57;;;;;;;4.22;0.88;;;20.60;49.00;;;;;;5034578;28;20049;-60
2022/01/21 10:09:23;;;;;;;3.75;0.95;;;20.60;49.10;;;;;;5018421;28;20413;-62
2022/01/21 10:11:50;;;;;;;5.57;0.82;;;20.60;49.20;;;;;;5015761;28;20053;-62
2022/01/21 10:14:19;;;;;;;4.07;0.97;;;20.70;49.20;;;;;;5014624;28;20049;-62
2022/01/21 10:16:46;;;;;;;4.13;0.80;;;20.70;49.10;;;;;;5015775;28;20045;-62
2022/01/21 10:19:11;;;;;;;4.32;0.90;;;20.70;49.10;;;;;;5022535;28;20037;-61
2022/01/21 10:21:39;;;;;;;4.15;0.85;;;20.70;49.10;;;;;;5025286;28;20440;-62
2022/01/21 10:24:06;;;;;;;2.75;0.73;;;20.70;49.20;;;;;;5024683;28;20049;-62
2022/01/21 10:26:31;;;;;;;3.38;0.88;;;20.70;49.10;;;;;;5023616;28;20038;-62
2022/01/21 10:28:57;;;;;;;3.58;1.00;;;20.70;49.10;;;;;;5024774;28;20444;-62
2022/01/21 10:31:24;;;;;;;4.47;0.70;;;20.70;49.10;;;;;;5024055;28;20069;-62
2022/01/21 10:34:03;;;;;;;3.40;0.73;;;20.70;49.10;;;;;;5022278;28;20133;-61
2022/01/21 10:36:31;;;;;;;5.53;1.30;;;20.70;49.10;;;;;;5025513;28;20045;-61
2022/01/21 10:39:10;;;;;;;2.67;0.63;;;20.70;49.10;;;;;;5015262;28;20049;-61
2022/01/21 10:41:40;;;;;;;3.58;1.20;;;20.70;49.20;;;;;;5033818;28;20044;-62
2022/01/21 10:44:15;;;;;;;3.38;0.90;;;20.70;49.20;;;;;;5034731;28;20052;-61
2022/01/21 10:46:46;;;;;;;3.30;0.80;;;20.70;49.30;;;;;;5035028;28;20076;-62
2022/01/21 10:49:13;;;;;;;2.83;0.60;;;20.70;49.30;;;;;;5033966;28;20045;-61
2022/01/21 10:51:49;;;;;;;4.68;0.85;;;20.70;49.30;;;;;;5031647;28;20053;-61
2022/01/21 10:54:16;;;;;;;2.63;0.60;;;20.70;49.30;;;;;;5032841;28;20046;-61
2022/01/21 10:57:14;;;;;;;4.72;1.05;;;20.70;49.30;;;;;;5033904;28;20033;-61
2022/01/21 11:00:05;;;;;;;2.45;0.88;;;20.70;49.10;;;;;;5029587;28;20132;-61
2022/01/21 11:02:45;;;;;;;4.07;0.98;;;20.70;49.00;;;;;;5023955;28;20053;-62
2022/01/21 11:05:28;;;;;;;4.57;0.90;;;20.70;48.80;;;;;;5033428;28;20033;-62
2022/01/21 11:08:09;;;;;;;4.50;0.90;;;20.60;48.70;;;;;;5016521;28;20512;-61
2022/01/21 11:10:50;;;;;;;5.45;1.13;;;20.60;48.60;;;;;;5033417;28;20099;-62
2022/01/21 11:13:18;;;;;;;5.18;1.10;;;20.60;48.60;;;;;;5033693;28;20041;-61
2022/01/21 11:15:54;;;;;;;4.35;1.08;;;20.60;48.50;;;;;;5034213;28;20163;-61
2022/01/21 11:18:20;;;;;;;4.18;0.77;;;20.60;48.40;;;;;;5014975;28;20052;-60
2022/01/21 11:20:50;;;;;;;4.57;1.02;;;20.60;48.60;;;;;;5004999;28;20042;-60
2022/01/21 11:23:16;;;;;;;5.35;0.95;;;20.60;48.90;;;;;;5014882;28;20038;-60
2022/01/21 11:25:49;;;;;;;5.00;1.15;;;20.60;49.10;;;;;;5014519;28;20038;-61
2022/01/21 11:28:16;;;;;;;4.22;0.95;;;20.60;49.40;;;;;;5013787;28;20042;-60
2022/01/21 11:30:41;;;;;;;6.40;1.10;;;20.70;49.50;;;;;;5013524;28;20045;-62
2022/01/21 11:33:07;;;;;;;5.00;0.77;;;20.70;49.40;;;;;;5013961;28;20038;-61
2022/01/21 11:35:33;;;;;;;5.28;1.00;;;20.70;49.30;;;;;;5019383;28;20061;-62
2022/01/21 11:37:58;;;;;;;4.47;1.13;;;20.70;49.30;;;;;;5032798;28;20128;-61
2022/01/21 11:40:25;;;;;;;5.53;0.90;;;20.70;49.30;;;;;;5033410;28;20052;-61
2022/01/21 11:42:50;;;;;;;4.70;1.00;;;20.70;49.30;;;;;;5033834;28;20037;-61
2022/01/21 11:45:30;;;;;;;3.83;1.10;;;20.70;49.20;;;;;;5032619;28;20095;-62
2022/01/21 11:50:46;;;;;;;4.03;0.88;;;20.70;49.20;;;;;;5033640;28;20049;-61
2022/01/21 11:53:12;;;;;;;4.05;1.20;;;20.70;49.20;;;;;;5032490;28;20045;-62
2022/01/21 11:55:45;;;;;;;6.32;1.52;;;20.70;49.10;;;;;;5033460;28;20401;-62
2022/01/21 11:58:17;;;;;;;3.78;1.42;;;20.70;49.10;;;;;;5032595;28;20042;-62
2022/01/21 12:00:43;;;;;;;5.25;1.38;;;20.70;48.90;;;;;;5032049;28;20054;-62
2022/01/21 12:03:08;;;;;;;6.03;2.22;;;20.70;49.00;;;;;;5033183;28;20400;-61
2022/01/21 12:05:34;;;;;;;6.30;1.50;;;20.70;49.00;;;;;;5031434;28;20041;-62
2022/01/21 12:08:05;;;;;;;4.82;1.50;;;20.70;49.00;;;;;;5033348;28;20378;-61
2022/01/21 12:10:33;;;;;;;7.40;1.60;;;20.70;49.00;;;;;;5026514;28;20042;-61
2022/01/21 12:13:11;;;;;;;6.93;2.20;;;20.80;49.20;;;;;;5022255;28;20099;-60
2022/01/21 12:15:53;;;;;;;7.38;1.90;;;20.70;49.30;;;;;;5022722;28;20060;-60
2022/01/21 12:18:55;;;;;;;8.48;2.13;;;20.70;49.50;;;;;;5022466;28;20507;-60
2022/01/21 12:21:28;;;;;;;6.68;1.88;;;20.70;49.60;;;;;;5009863;28;20490;-60
2022/01/21 12:23:54;;;;;;;5.57;1.90;;;20.80;49.80;;;;;;5021669;28;20050;-60
2022/01/21 12:26:20;;;;;;;6.63;2.20;;;20.80;49.80;;;;;;5017165;28;20045;-60
2022/01/21 12:29:06;;;;;;;8.05;2.13;;;20.80;49.90;;;;;;5017898;28;20048;-59
2022/01/21 12:31:42;;;;;;;7.63;2.30;;;20.80;50.00;;;;;;5002491;28;20505;-60
2022/01/21 12:34:14;;;;;;;8.98;2.03;;;20.80;50.00;;;;;;5012326;28;20053;-66
2022/01/21 12:36:54;;;;;;;6.75;1.98;;;20.80;50.10;;;;;;5026071;28;20045;-60
2022/01/21 12:39:41;;;;;;;5.32;2.15;;;20.80;50.10;;;;;;5032415;28;20075;-61
2022/01/21 12:42:24;;;;;;;4.97;1.93;;;20.80;50.30;;;;;;5031910;28;20045;-61
2022/01/21 12:45:14;;;;;;;6.70;2.00;;;20.90;50.30;;;;;;5032785;28;20072;-61
2022/01/21 12:47:43;;;;;;;5.55;1.80;;;20.80;50.30;;;;;;5014272;28;20067;-61
2022/01/21 12:50:32;;;;;;;6.75;2.13;;;20.90;50.40;;;;;;5031989;28;20544;-61
2022/01/21 12:55:55;;;;;;;5.22;2.00;;;20.90;50.50;;;;;;5017944;28;20060;-61
2022/01/21 12:58:25;;;;;;;7.90;1.80;;;20.90;51.20;;;;;;5012610;28;20045;-59
2022/01/21 13:00:57;;;;;;;6.22;2.13;;;20.90;50.60;;;;;;5012535;28;20058;-60
2022/01/21 13:03:45;;;;;;;6.03;2.15;;;20.90;50.60;;;;;;5011569;28;20053;-60
2022/01/21 13:07:02;;;;;;;5.68;2.00;;;20.90;50.30;;;;;;5021116;28;20076;-60
2022/01/21 13:10:15;;;;;;;7.20;2.05;;;20.90;50.30;;;;;;4978570;28;20046;-60
2022/01/21 13:12:58;;;;;;;6.10;1.85;;;20.90;50.40;;;;;;4977283;28;20498;-59
2022/01/21 13:15:46;;;;;;;6.05;2.38;;;20.90;50.40;;;;;;5012805;28;20516;-60
2022/01/21 13:18:24;;;;;;;7.57;2.30;;;20.90;50.50;;;;;;5012542;28;20041;-59
2022/01/21 13:20:51;;;;;;;5.03;1.50;;;20.90;50.60;;;;;;5023598;28;20076;-60
2022/01/21 13:23:40;;;;;;;6.15;2.42;;;20.90;50.60;;;;;;5032214;28;20500;-60
2022/01/21 13:26:19;;;;;;;7.78;1.73;;;20.90;50.30;;;;;;5034660;28;20053;-60
2022/01/21 13:29:02;;;;;;;6.22;1.80;;;20.90;50.10;;;;;;5036255;28;20038;-60
2022/01/21 13:31:29;;;;;;;7.07;1.60;;;20.90;50.10;;;;;;5035549;28;20041;-60
2022/01/21 13:34:10;;;;;;;7.25;1.80;;;20.90;50.10;;;;;;5035178;28;20069;-60
2022/01/21 13:36:56;;;;;;;5.65;1.75;;;20.90;50.10;;;;;;5035634;28;20052;-61
2022/01/21 13:39:27;;;;;;;4.88;1.58;;;20.90;50.00;;;;;;5035418;28;20531;-60